DLH1205 EDDS-LGAV
Flight info
| Callsign | DLH1205 |
|---|---|
| Flight time | N/A |
| Altitude | 35000 |
| Route | ROTWE5B/25 ROTWE Y126 TUBLO N850 NATOR DCT TRA DCT ARGAX DCT RESIA DCT NOSTO UN7 NEMES NEMES1R |
| Aircraft | A320/M-SDE3FGHIRWY/LB1 |
Departure
| Time | 2026-05-06 17:07 |
|---|---|
| Airport | Stuttgart Airport (EDDS) |
Arrival
| Time | N/A |
|---|---|
| Airport | Athens Eleftherios Venizelos International Airport (LGAV) |
| Time | Latitude | Longitude | Altitude | Speed | Heading |
|---|---|---|---|---|---|
| 2026-05-06 16:34 | 48.68930 | 9.19652 | 1291 ft | 0 kts | 343° |
| 2026-05-06 16:54 | 48.68918 | 9.19658 | 1290 ft | 4 kts | 346° |
| 2026-05-06 16:54 | 48.68892 | 9.19664 | 1289 ft | 4 kts | 0° |
| 2026-05-06 16:54 | 48.68867 | 9.19658 | 1287 ft | 4 kts | 31° |
| 2026-05-06 16:54 | 48.68854 | 9.19639 | 1291 ft | 0 kts | 73° |
| 2026-05-06 16:57 | 48.68854 | 9.19641 | 1291 ft | 1 kts | 73° |
| 2026-05-06 16:58 | 48.68861 | 9.19674 | 1286 ft | 5 kts | 73° |
| 2026-05-06 16:58 | 48.68875 | 9.19744 | 1285 ft | 9 kts | 74° |
| 2026-05-06 16:58 | 48.68880 | 9.19831 | 1285 ft | 7 kts | 96° |
| 2026-05-06 16:58 | 48.68856 | 9.19875 | 1287 ft | 5 kts | 146° |
| 2026-05-06 16:59 | 48.68829 | 9.19928 | 1288 ft | 8 kts | 110° |
| 2026-05-06 16:59 | 48.68838 | 9.20031 | 1288 ft | 12 kts | 72° |
| 2026-05-06 16:59 | 48.68864 | 9.20168 | 1288 ft | 15 kts | 74° |
| 2026-05-06 16:59 | 48.68890 | 9.20314 | 1285 ft | 15 kts | 75° |
| 2026-05-06 17:00 | 48.68919 | 9.20468 | 1286 ft | 17 kts | 74° |
| 2026-05-06 17:00 | 48.68953 | 9.20650 | 1287 ft | 20 kts | 74° |
| 2026-05-06 17:00 | 48.68986 | 9.20821 | 1285 ft | 12 kts | 74° |
| 2026-05-06 17:00 | 48.69013 | 9.20962 | 1286 ft | 16 kts | 74° |
| 2026-05-06 17:01 | 48.69046 | 9.21140 | 1285 ft | 19 kts | 74° |
| 2026-05-06 17:01 | 48.69080 | 9.21320 | 1287 ft | 17 kts | 74° |
| 2026-05-06 17:01 | 48.69114 | 9.21500 | 1285 ft | 18 kts | 74° |
| 2026-05-06 17:01 | 48.69152 | 9.21696 | 1288 ft | 20 kts | 73° |
| 2026-05-06 17:02 | 48.69194 | 9.21913 | 1287 ft | 23 kts | 73° |
| 2026-05-06 17:02 | 48.69237 | 9.22142 | 1289 ft | 21 kts | 75° |
| 2026-05-06 17:02 | 48.69277 | 9.22360 | 1285 ft | 23 kts | 74° |
| 2026-05-06 17:02 | 48.69323 | 9.22602 | 1287 ft | 20 kts | 73° |
| 2026-05-06 17:03 | 48.69364 | 9.22814 | 1285 ft | 19 kts | 74° |
| 2026-05-06 17:03 | 48.69403 | 9.23025 | 1285 ft | 23 kts | 74° |
| 2026-05-06 17:03 | 48.69451 | 9.23269 | 1285 ft | 21 kts | 73° |
| 2026-05-06 17:03 | 48.69492 | 9.23480 | 1286 ft | 23 kts | 73° |
| 2026-05-06 17:04 | 48.69520 | 9.23628 | 1286 ft | 16 kts | 73° |
| 2026-05-06 17:04 | 48.69554 | 9.23806 | 1290 ft | 19 kts | 74° |
| 2026-05-06 17:04 | 48.69576 | 9.23922 | 1285 ft | 13 kts | 74° |
| 2026-05-06 17:04 | 48.69604 | 9.24076 | 1285 ft | 17 kts | 77° |
| 2026-05-06 17:05 | 48.69571 | 9.24259 | 1288 ft | 20 kts | 129° |
| 2026-05-06 17:05 | 48.69442 | 9.24322 | 1285 ft | 20 kts | 191° |
| 2026-05-06 17:05 | 48.69378 | 9.24253 | 1285 ft | 0 kts | 250° |
| 2026-05-06 17:06 | 48.69375 | 9.24242 | 1285 ft | 7 kts | 250° |
| 2026-05-06 17:06 | 48.69306 | 9.23894 | 1291 ft | 70 kts | 254° |
| 2026-05-06 17:06 | 48.69115 | 9.22873 | 1289 ft | 129 kts | 254° |
| 2026-05-06 17:06 | 48.68828 | 9.21362 | 1405 ft | 166 kts | 254° |
| 2026-05-06 17:07 | 48.68504 | 9.19660 | 1863 ft | 180 kts | 253° |
| 2026-05-06 17:07 | 48.68146 | 9.17794 | 2530 ft | 185 kts | 254° |
| 2026-05-06 17:07 | 48.67785 | 9.15887 | 3140 ft | 196 kts | 254° |
| 2026-05-06 17:07 | 48.67399 | 9.13787 | 3393 ft | 219 kts | 254° |
| 2026-05-06 17:08 | 48.66966 | 9.11439 | 3734 ft | 244 kts | 254° |
| 2026-05-06 17:08 | 48.66487 | 9.08866 | 4255 ft | 261 kts | 253° |
| 2026-05-06 17:08 | 48.65981 | 9.06182 | 4826 ft | 268 kts | 253° |
| 2026-05-06 17:08 | 48.65471 | 9.03508 | 4968 ft | 268 kts | 253° |
| 2026-05-06 17:09 | 48.64948 | 9.00796 | 5004 ft | 268 kts | 253° |
| 2026-05-06 17:09 | 48.64420 | 8.98080 | 5015 ft | 268 kts | 252° |
| 2026-05-06 17:09 | 48.63883 | 8.95345 | 5649 ft | 272 kts | 252° |
| 2026-05-06 17:09 | 48.63524 | 8.93524 | 6249 ft | 273 kts | 252° |
| 2026-05-06 17:10 | 48.62979 | 8.90763 | 7072 ft | 276 kts | 252° |
| 2026-05-06 17:10 | 48.62426 | 8.87965 | 7889 ft | 279 kts | 250° |
| 2026-05-06 17:10 | 48.61504 | 8.85392 | 8654 ft | 281 kts | 227° |
| 2026-05-06 17:10 | 48.60047 | 8.83428 | 9415 ft | 283 kts | 217° |
| 2026-05-06 17:11 | 48.58492 | 8.81559 | 10098 ft | 289 kts | 217° |
| 2026-05-06 17:11 | 48.56847 | 8.79599 | 10297 ft | 313 kts | 217° |
| 2026-05-06 17:11 | 48.55076 | 8.77490 | 10452 ft | 336 kts | 217° |
| 2026-05-06 17:11 | 48.53184 | 8.75230 | 10580 ft | 357 kts | 218° |
| 2026-05-06 17:12 | 48.51228 | 8.72880 | 10971 ft | 367 kts | 218° |
| 2026-05-06 17:12 | 48.49221 | 8.70465 | 11620 ft | 371 kts | 218° |
| 2026-05-06 17:12 | 48.47200 | 8.68031 | 12300 ft | 373 kts | 218° |
| 2026-05-06 17:12 | 48.45162 | 8.65586 | 12994 ft | 374 kts | 218° |
| 2026-05-06 17:13 | 48.43120 | 8.63147 | 13677 ft | 376 kts | 218° |
| 2026-05-06 17:13 | 48.41050 | 8.60680 | 14238 ft | 379 kts | 218° |
| 2026-05-06 17:13 | 48.38978 | 8.58208 | 14768 ft | 382 kts | 218° |
| 2026-05-06 17:13 | 48.36885 | 8.55706 | 15271 ft | 385 kts | 217° |
| 2026-05-06 17:14 | 48.34779 | 8.53190 | 15774 ft | 388 kts | 217° |
| 2026-05-06 17:14 | 48.32653 | 8.50664 | 16263 ft | 390 kts | 217° |
| 2026-05-06 17:14 | 48.30541 | 8.48163 | 16758 ft | 392 kts | 217° |
| 2026-05-06 17:14 | 48.28388 | 8.45615 | 17233 ft | 395 kts | 217° |
| 2026-05-06 17:15 | 48.26225 | 8.43054 | 17690 ft | 397 kts | 217° |
| 2026-05-06 17:15 | 48.24046 | 8.40472 | 18138 ft | 400 kts | 217° |
| 2026-05-06 17:15 | 48.21855 | 8.37883 | 18540 ft | 402 kts | 216° |
| 2026-05-06 17:15 | 48.19489 | 8.35643 | 18909 ft | 404 kts | 205° |
| 2026-05-06 17:16 | 48.16867 | 8.34122 | 19290 ft | 405 kts | 194° |
| 2026-05-06 17:16 | 48.14086 | 8.33407 | 19660 ft | 408 kts | 184° |
| 2026-05-06 17:16 | 48.11244 | 8.33541 | 20041 ft | 410 kts | 173° |
| 2026-05-06 17:16 | 48.08414 | 8.34225 | 20436 ft | 412 kts | 171° |
| 2026-05-06 17:17 | 48.05579 | 8.34914 | 20814 ft | 414 kts | 171° |
| 2026-05-06 17:17 | 48.02697 | 8.35606 | 21172 ft | 416 kts | 171° |
| 2026-05-06 17:17 | 47.99842 | 8.36291 | 21524 ft | 418 kts | 171° |
| 2026-05-06 17:17 | 47.96996 | 8.36972 | 21866 ft | 420 kts | 171° |
| 2026-05-06 17:18 | 47.94098 | 8.37666 | 22217 ft | 422 kts | 171° |
| 2026-05-06 17:18 | 47.91190 | 8.38366 | 22563 ft | 424 kts | 172° |
| 2026-05-06 17:18 | 47.88270 | 8.39068 | 22957 ft | 425 kts | 172° |
| 2026-05-06 17:18 | 47.85346 | 8.39771 | 23329 ft | 426 kts | 172° |
| 2026-05-06 17:19 | 47.82399 | 8.40480 | 23638 ft | 428 kts | 172° |
| 2026-05-06 17:19 | 47.79454 | 8.41188 | 23921 ft | 429 kts | 172° |
| 2026-05-06 17:19 | 47.76536 | 8.41890 | 24195 ft | 431 kts | 172° |
| 2026-05-06 17:19 | 47.73579 | 8.42621 | 24474 ft | 432 kts | 169° |
| 2026-05-06 17:20 | 47.70675 | 8.43860 | 24690 ft | 436 kts | 160° |
| 2026-05-06 17:20 | 47.67942 | 8.45829 | 24927 ft | 439 kts | 150° |
| 2026-05-06 17:20 | 47.65451 | 8.48485 | 25188 ft | 443 kts | 141° |
| 2026-05-06 17:20 | 47.63178 | 8.51580 | 25445 ft | 444 kts | 139° |
| 2026-05-06 17:21 | 47.60899 | 8.54700 | 25709 ft | 446 kts | 140° |
| 2026-05-06 17:21 | 47.58618 | 8.57811 | 25962 ft | 447 kts | 140° |
| 2026-05-06 17:21 | 47.56320 | 8.60935 | 26210 ft | 448 kts | 140° |
| 2026-05-06 17:21 | 47.54019 | 8.64060 | 26520 ft | 447 kts | 140° |
| 2026-05-06 17:22 | 47.51737 | 8.67161 | 26892 ft | 445 kts | 140° |
| 2026-05-06 17:22 | 47.49458 | 8.70261 | 27285 ft | 444 kts | 140° |
| 2026-05-06 17:22 | 47.47182 | 8.73345 | 27649 ft | 442 kts | 140° |
| 2026-05-06 17:22 | 47.44915 | 8.76410 | 28034 ft | 440 kts | 141° |
| 2026-05-06 17:23 | 47.42650 | 8.79465 | 28352 ft | 439 kts | 141° |
| 2026-05-06 17:23 | 47.40390 | 8.82510 | 28644 ft | 440 kts | 141° |
| 2026-05-06 17:23 | 47.38135 | 8.85545 | 28960 ft | 439 kts | 141° |
| 2026-05-06 17:23 | 47.35879 | 8.88581 | 29298 ft | 438 kts | 142° |
| 2026-05-06 17:24 | 47.33631 | 8.91600 | 29653 ft | 437 kts | 142° |
| 2026-05-06 17:24 | 47.31386 | 8.94616 | 30020 ft | 436 kts | 142° |
| 2026-05-06 17:24 | 47.29148 | 8.97624 | 30306 ft | 435 kts | 142° |
| 2026-05-06 17:24 | 47.26908 | 9.00634 | 30604 ft | 435 kts | 142° |
| 2026-05-06 17:25 | 47.24669 | 9.03639 | 30876 ft | 434 kts | 142° |
| 2026-05-06 17:25 | 47.22461 | 9.06593 | 31144 ft | 434 kts | 142° |
| 2026-05-06 17:25 | 47.20226 | 9.09575 | 31434 ft | 433 kts | 142° |
| 2026-05-06 17:25 | 47.17987 | 9.12557 | 31672 ft | 434 kts | 143° |
| 2026-05-06 17:26 | 47.15743 | 9.15537 | 31898 ft | 435 kts | 143° |
| 2026-05-06 17:26 | 47.13499 | 9.18518 | 32141 ft | 435 kts | 143° |
| 2026-05-06 17:26 | 47.11246 | 9.21510 | 32401 ft | 435 kts | 143° |
| 2026-05-06 17:26 | 47.09026 | 9.24455 | 32635 ft | 435 kts | 143° |
| 2026-05-06 17:27 | 47.06751 | 9.27470 | 32846 ft | 435 kts | 143° |
| 2026-05-06 17:27 | 47.04559 | 9.30374 | 33073 ft | 435 kts | 143° |
| 2026-05-06 17:27 | 47.02310 | 9.33351 | 33299 ft | 436 kts | 143° |
| 2026-05-06 17:27 | 47.00060 | 9.36328 | 33539 ft | 436 kts | 143° |
| 2026-05-06 17:28 | 46.97806 | 9.39304 | 33808 ft | 436 kts | 143° |
| 2026-05-06 17:28 | 46.95549 | 9.42276 | 34018 ft | 436 kts | 143° |
| 2026-05-06 17:28 | 46.93287 | 9.45250 | 34171 ft | 437 kts | 143° |
| 2026-05-06 17:28 | 46.91025 | 9.48222 | 34341 ft | 438 kts | 143° |
| 2026-05-06 17:29 | 46.88756 | 9.51203 | 34519 ft | 439 kts | 143° |
| 2026-05-06 17:29 | 46.86484 | 9.54188 | 34694 ft | 439 kts | 143° |
| 2026-05-06 17:29 | 46.84210 | 9.57172 | 34852 ft | 440 kts | 143° |
| 2026-05-06 17:30 | 46.79621 | 9.63162 | 34914 ft | 443 kts | 143° |
| 2026-05-06 17:30 | 46.75013 | 9.69173 | 34920 ft | 445 kts | 144° |
| 2026-05-06 17:31 | 46.70383 | 9.75197 | 34938 ft | 447 kts | 144° |
| 2026-05-06 17:31 | 46.65750 | 9.81218 | 34943 ft | 447 kts | 144° |
| 2026-05-06 17:32 | 46.61102 | 9.87228 | 34950 ft | 446 kts | 144° |
| 2026-05-06 17:32 | 46.56462 | 9.93234 | 34946 ft | 446 kts | 144° |
| 2026-05-06 17:33 | 46.51824 | 9.99217 | 34968 ft | 446 kts | 147° |
| 2026-05-06 17:33 | 46.47261 | 10.05244 | 34934 ft | 448 kts | 141° |
| 2026-05-06 17:34 | 46.43064 | 10.11902 | 34904 ft | 450 kts | 141° |
| 2026-05-06 17:34 | 46.38811 | 10.18630 | 34909 ft | 452 kts | 141° |
| 2026-05-06 17:35 | 46.34567 | 10.25345 | 34924 ft | 452 kts | 141° |
| 2026-05-06 17:35 | 46.30311 | 10.32046 | 34926 ft | 452 kts | 141° |
| 2026-05-06 17:36 | 46.23920 | 10.42082 | 34928 ft | 452 kts | 141° |
| 2026-05-06 17:36 | 46.19672 | 10.48745 | 34899 ft | 451 kts | 141° |
| 2026-05-06 17:37 | 46.15419 | 10.55389 | 34920 ft | 451 kts | 141° |
| 2026-05-06 17:37 | 46.11775 | 10.61075 | 34926 ft | 450 kts | 141° |
| 2026-05-06 17:38 | 46.07510 | 10.67711 | 34932 ft | 450 kts | 141° |
| 2026-05-06 17:38 | 46.03249 | 10.74307 | 34924 ft | 450 kts | 141° |
| 2026-05-06 17:39 | 45.98994 | 10.80886 | 34891 ft | 450 kts | 141° |
| 2026-05-06 17:39 | 45.94737 | 10.87467 | 34903 ft | 450 kts | 141° |
| 2026-05-06 17:40 | 45.90466 | 10.94040 | 34916 ft | 450 kts | 141° |
| 2026-05-06 17:40 | 45.86219 | 11.00564 | 34909 ft | 450 kts | 141° |
| 2026-05-06 17:41 | 45.81952 | 11.07112 | 34890 ft | 448 kts | 142° |
| 2026-05-06 17:41 | 45.77671 | 11.13654 | 34895 ft | 449 kts | 141° |
| 2026-05-06 17:42 | 45.73369 | 11.20218 | 34911 ft | 448 kts | 142° |
| 2026-05-06 17:42 | 45.69128 | 11.26672 | 34903 ft | 448 kts | 142° |
| 2026-05-06 17:43 | 45.64874 | 11.33128 | 34905 ft | 447 kts | 142° |
| 2026-05-06 17:43 | 45.60610 | 11.39580 | 34904 ft | 447 kts | 142° |
| 2026-05-06 17:44 | 45.56338 | 11.46037 | 34883 ft | 447 kts | 142° |
| 2026-05-06 17:44 | 45.52062 | 11.52492 | 34882 ft | 447 kts | 142° |
| 2026-05-06 17:45 | 45.47798 | 11.58898 | 34886 ft | 447 kts | 142° |
| 2026-05-06 17:45 | 45.43521 | 11.65309 | 34887 ft | 447 kts | 142° |
| 2026-05-06 17:46 | 45.39232 | 11.71718 | 34854 ft | 446 kts | 142° |
| 2026-05-06 17:46 | 45.34922 | 11.78146 | 34861 ft | 446 kts | 142° |
| 2026-05-06 17:47 | 45.30640 | 11.84532 | 34866 ft | 447 kts | 142° |
| 2026-05-06 17:47 | 45.26373 | 11.90892 | 34875 ft | 447 kts | 142° |
| 2026-05-06 17:48 | 45.22101 | 11.97229 | 34877 ft | 447 kts | 142° |
| 2026-05-06 17:48 | 45.17766 | 12.03625 | 34869 ft | 448 kts | 142° |
| 2026-05-06 17:49 | 45.13466 | 12.09966 | 34875 ft | 449 kts | 142° |
| 2026-05-06 17:49 | 45.09140 | 12.16344 | 34861 ft | 450 kts | 142° |
| 2026-05-06 17:50 | 45.04786 | 12.22737 | 34866 ft | 451 kts | 142° |
| 2026-05-06 17:50 | 45.00434 | 12.29122 | 34875 ft | 451 kts | 142° |
| 2026-05-06 17:51 | 44.96094 | 12.35469 | 34866 ft | 452 kts | 142° |
| 2026-05-06 17:51 | 44.91726 | 12.41839 | 34875 ft | 453 kts | 142° |
| 2026-05-06 17:52 | 44.88048 | 12.47197 | 34865 ft | 453 kts | 142° |
| 2026-05-06 17:52 | 44.83654 | 12.53579 | 34873 ft | 453 kts | 142° |
| 2026-05-06 17:53 | 44.79283 | 12.59901 | 34885 ft | 454 kts | 142° |
| 2026-05-06 17:53 | 44.74870 | 12.66280 | 34875 ft | 455 kts | 142° |
| 2026-05-06 17:54 | 44.70451 | 12.72663 | 34882 ft | 456 kts | 142° |
| 2026-05-06 17:54 | 44.66025 | 12.79025 | 34884 ft | 456 kts | 142° |
| 2026-05-06 17:55 | 44.61586 | 12.85396 | 34888 ft | 456 kts | 142° |
| 2026-05-06 17:55 | 44.57141 | 12.91761 | 34880 ft | 456 kts | 142° |
| 2026-05-06 17:56 | 44.52696 | 12.98114 | 34887 ft | 456 kts | 142° |
| 2026-05-06 17:56 | 44.48250 | 13.04460 | 34894 ft | 456 kts | 142° |
| 2026-05-06 17:57 | 44.43800 | 13.10789 | 34901 ft | 456 kts | 142° |
| 2026-05-06 17:57 | 44.39357 | 13.17090 | 34902 ft | 456 kts | 142° |
| 2026-05-06 17:58 | 44.34901 | 13.23398 | 34896 ft | 456 kts | 142° |
| 2026-05-06 17:58 | 44.30439 | 13.29699 | 34904 ft | 456 kts | 142° |
| 2026-05-06 17:59 | 44.25974 | 13.35994 | 34909 ft | 456 kts | 142° |
| 2026-05-06 17:59 | 44.21507 | 13.42285 | 34918 ft | 456 kts | 142° |
| 2026-05-06 18:00 | 44.17036 | 13.48560 | 34901 ft | 456 kts | 142° |
| 2026-05-06 18:00 | 44.12562 | 13.54827 | 34897 ft | 458 kts | 143° |
| 2026-05-06 18:01 | 44.08048 | 13.61122 | 34904 ft | 460 kts | 143° |
| 2026-05-06 18:01 | 44.03521 | 13.67429 | 34914 ft | 461 kts | 143° |
| 2026-05-06 18:02 | 43.99009 | 13.73702 | 34921 ft | 461 kts | 143° |
| 2026-05-06 18:02 | 43.94465 | 13.79998 | 34932 ft | 462 kts | 143° |
| 2026-05-06 18:03 | 43.89924 | 13.86279 | 34912 ft | 462 kts | 143° |
| 2026-05-06 18:03 | 43.85366 | 13.92565 | 34914 ft | 462 kts | 143° |
| 2026-05-06 18:04 | 43.80785 | 13.98872 | 34926 ft | 463 kts | 143° |
| 2026-05-06 18:04 | 43.76235 | 14.05124 | 34930 ft | 463 kts | 143° |
| 2026-05-06 18:05 | 43.71698 | 14.11352 | 34914 ft | 463 kts | 143° |
| 2026-05-06 18:05 | 43.67096 | 14.17663 | 34919 ft | 463 kts | 144° |
| 2026-05-06 18:06 | 43.62529 | 14.23893 | 34923 ft | 465 kts | 143° |
| 2026-05-06 18:06 | 43.57891 | 14.30209 | 34926 ft | 466 kts | 143° |
| 2026-05-06 18:07 | 43.53306 | 14.36443 | 34932 ft | 466 kts | 143° |
| 2026-05-06 18:07 | 43.48685 | 14.42702 | 34925 ft | 466 kts | 143° |
| 2026-05-06 18:08 | 43.44053 | 14.48952 | 34926 ft | 466 kts | 143° |
| 2026-05-06 18:08 | 43.39434 | 14.55183 | 34930 ft | 466 kts | 143° |
| 2026-05-06 18:09 | 43.34803 | 14.61427 | 34931 ft | 466 kts | 143° |
| 2026-05-06 18:09 | 43.30169 | 14.67658 | 34938 ft | 466 kts | 143° |
| 2026-05-06 18:10 | 43.25529 | 14.73888 | 34920 ft | 466 kts | 143° |
| 2026-05-06 18:10 | 43.20892 | 14.80087 | 34933 ft | 465 kts | 143° |
| 2026-05-06 18:11 | 43.16251 | 14.86270 | 34930 ft | 465 kts | 143° |
| 2026-05-06 18:11 | 43.11621 | 14.92438 | 34926 ft | 465 kts | 143° |
| 2026-05-06 18:12 | 43.06997 | 14.98578 | 34916 ft | 466 kts | 143° |
| 2026-05-06 18:12 | 43.02338 | 15.04753 | 34903 ft | 467 kts | 143° |
| 2026-05-06 18:13 | 42.97676 | 15.10930 | 34937 ft | 466 kts | 143° |
| 2026-05-06 18:13 | 42.93021 | 15.17073 | 34945 ft | 466 kts | 143° |
| 2026-05-06 18:14 | 42.88347 | 15.23219 | 34950 ft | 466 kts | 144° |
| 2026-05-06 18:14 | 42.83675 | 15.29352 | 34937 ft | 466 kts | 144° |
| 2026-05-06 18:15 | 42.79016 | 15.35465 | 34908 ft | 466 kts | 143° |
| 2026-05-06 18:15 | 42.74331 | 15.41601 | 34919 ft | 466 kts | 143° |
| 2026-05-06 18:16 | 42.69656 | 15.47708 | 34931 ft | 466 kts | 144° |
| 2026-05-06 18:16 | 42.65005 | 15.53757 | 34934 ft | 466 kts | 144° |
| 2026-05-06 18:17 | 42.60293 | 15.59872 | 34930 ft | 466 kts | 144° |
| 2026-05-06 18:17 | 42.55643 | 15.65902 | 34924 ft | 466 kts | 143° |
| 2026-05-06 18:18 | 42.50953 | 15.71978 | 34915 ft | 466 kts | 143° |
| 2026-05-06 18:18 | 42.46252 | 15.78049 | 34922 ft | 466 kts | 143° |
| 2026-05-06 18:19 | 42.41544 | 15.84107 | 34932 ft | 467 kts | 143° |
| 2026-05-06 18:19 | 42.36844 | 15.90153 | 34935 ft | 467 kts | 143° |
| 2026-05-06 18:20 | 42.32135 | 15.96198 | 34941 ft | 467 kts | 143° |
| 2026-05-06 18:20 | 42.27402 | 16.02245 | 34914 ft | 467 kts | 143° |
| 2026-05-06 18:21 | 42.22677 | 16.08271 | 34931 ft | 468 kts | 142° |
| 2026-05-06 18:21 | 42.17943 | 16.14315 | 34937 ft | 468 kts | 142° |
| 2026-05-06 18:22 | 42.13230 | 16.20308 | 34941 ft | 469 kts | 143° |
| 2026-05-06 18:22 | 42.08483 | 16.26331 | 34953 ft | 469 kts | 143° |
| 2026-05-06 18:23 | 42.03727 | 16.32350 | 34947 ft | 469 kts | 142° |
| 2026-05-06 18:23 | 41.98964 | 16.38363 | 34944 ft | 470 kts | 142° |
| 2026-05-06 18:24 | 41.94187 | 16.44381 | 34947 ft | 471 kts | 142° |
| 2026-05-06 18:24 | 41.89435 | 16.50368 | 34962 ft | 471 kts | 142° |
| 2026-05-06 18:25 | 41.84645 | 16.56383 | 34964 ft | 472 kts | 142° |
| 2026-05-06 18:25 | 41.79848 | 16.62392 | 34949 ft | 472 kts | 142° |
| 2026-05-06 18:26 | 41.75045 | 16.68392 | 34959 ft | 472 kts | 142° |
| 2026-05-06 18:26 | 41.72480 | 16.71594 | 34953 ft | 472 kts | 142° |
| 2026-05-06 18:27 | 41.67659 | 16.77591 | 34970 ft | 474 kts | 142° |
| 2026-05-06 18:27 | 41.62825 | 16.83592 | 34969 ft | 475 kts | 142° |
| 2026-05-06 18:28 | 41.57983 | 16.89606 | 34972 ft | 475 kts | 142° |
| 2026-05-06 18:28 | 41.53200 | 16.95528 | 34980 ft | 475 kts | 142° |
| 2026-05-06 18:29 | 41.48382 | 17.01480 | 34986 ft | 475 kts | 142° |
| 2026-05-06 18:29 | 41.43527 | 17.07462 | 34990 ft | 475 kts | 142° |
| 2026-05-06 18:30 | 41.38666 | 17.13442 | 34990 ft | 476 kts | 142° |
| 2026-05-06 18:30 | 41.33792 | 17.19417 | 34994 ft | 476 kts | 142° |
| 2026-05-06 18:31 | 41.28923 | 17.25383 | 34977 ft | 476 kts | 142° |
| 2026-05-06 18:31 | 41.24032 | 17.31360 | 34986 ft | 477 kts | 142° |
| 2026-05-06 18:32 | 41.19148 | 17.37316 | 34989 ft | 476 kts | 141° |
| 2026-05-06 18:32 | 41.16885 | 17.40593 | 33148 ft | 494 kts | 143° |
| 2026-05-06 18:32 | 41.13839 | 17.42947 | 31188 ft | 499 kts | 163° |
| 2026-05-06 18:33 | 41.11360 | 17.44564 | 35336 ft | 363 kts | 166° |
| 2026-05-06 18:33 | 41.09333 | 17.46041 | 38058 ft | 305 kts | 171° |
| 2026-05-06 18:33 | 41.05498 | 17.49210 | 34940 ft | 400 kts | 157° |
| 2026-05-06 18:34 | 41.03027 | 17.51355 | 34158 ft | 433 kts | 157° |
| 2026-05-06 18:34 | 41.00514 | 17.53595 | 34305 ft | 437 kts | 156° |